sensor_id;sensor_type;location;lat;lon;timestamp;P1;durP1;ratioP1;P2;durP2;ratioP2
59998;SDS011;45859;51.378;6.736;2022-09-20T00:00:06;14.07;;;5.37;;
59998;SDS011;45859;51.378;6.736;2022-09-20T00:02:32;12.13;;;5.10;;
59998;SDS011;45859;51.378;6.736;2022-09-20T00:04:57;12.70;;;5.63;;
59998;SDS011;45859;51.378;6.736;2022-09-20T00:07:23;15.93;;;2.37;;
59998;SDS011;45859;51.378;6.736;2022-09-20T00:09:49;3.37;;;1.77;;
59998;SDS011;45859;51.378;6.736;2022-09-20T00:12:14;3.33;;;2.10;;
59998;SDS011;45859;51.378;6.736;2022-09-20T00:14:40;13.00;;;5.67;;
59998;SDS011;45859;51.378;6.736;2022-09-20T00:17:06;11.63;;;5.43;;
59998;SDS011;45859;51.378;6.736;2022-09-20T00:19:31;10.13;;;5.10;;
59998;SDS011;45859;51.378;6.736;2022-09-20T00:21:57;13.80;;;5.00;;
59998;SDS011;45859;51.378;6.736;2022-09-20T00:24:23;2.73;;;1.63;;
59998;SDS011;45859;51.378;6.736;2022-09-20T00:26:49;14.13;;;5.07;;
59998;SDS011;45859;51.378;6.736;2022-09-20T00:29:15;10.97;;;5.23;;
59998;SDS011;45859;51.378;6.736;2022-09-20T00:31:41;10.80;;;5.07;;
59998;SDS011;45859;51.378;6.736;2022-09-20T00:34:07;11.90;;;5.20;;
59998;SDS011;45859;51.378;6.736;2022-09-20T00:36:52;13.40;;;5.60;;
59998;SDS011;45859;51.378;6.736;2022-09-20T00:39:17;8.70;;;4.90;;
59998;SDS011;45859;51.378;6.736;2022-09-20T00:41:43;11.83;;;5.07;;
59998;SDS011;45859;51.378;6.736;2022-09-20T00:47:12;9.77;;;2.23;;
59998;SDS011;45859;51.378;6.736;2022-09-20T00:49:43;12.80;;;5.20;;
59998;SDS011;45859;51.378;6.736;2022-09-20T00:52:09;15.83;;;5.70;;
59998;SDS011;45859;51.378;6.736;2022-09-20T00:54:35;10.33;;;5.10;;
59998;SDS011;45859;51.378;6.736;2022-09-20T00:57:01;10.07;;;5.57;;
59998;SDS011;45859;51.378;6.736;2022-09-20T00:59:37;3.77;;;2.03;;
59998;SDS011;45859;51.378;6.736;2022-09-20T01:02:11;10.53;;;5.80;;
59998;SDS011;45859;51.378;6.736;2022-09-20T01:04:41;5.93;;;2.10;;
59998;SDS011;45859;51.378;6.736;2022-09-20T01:07:10;4.50;;;2.47;;
59998;SDS011;45859;51.378;6.736;2022-09-20T01:09:38;6.63;;;1.90;;
59998;SDS011;45859;51.378;6.736;2022-09-20T01:12:05;12.73;;;5.33;;
59998;SDS011;45859;51.378;6.736;2022-09-20T01:14:36;17.43;;;6.17;;
59998;SDS011;45859;51.378;6.736;2022-09-20T01:17:03;9.97;;;2.73;;
59998;SDS011;45859;51.378;6.736;2022-09-20T01:19:37;7.70;;;2.70;;
59998;SDS011;45859;51.378;6.736;2022-09-20T01:22:06;8.10;;;2.40;;
59998;SDS011;45859;51.378;6.736;2022-09-20T01:24:51;11.63;;;5.50;;
59998;SDS011;45859;51.378;6.736;2022-09-20T01:30:06;13.77;;;5.80;;
59998;SDS011;45859;51.378;6.736;2022-09-20T01:35:20;7.53;;;2.17;;
59998;SDS011;45859;51.378;6.736;2022-09-20T01:49:44;13.97;;;5.90;;
59998;SDS011;45859;51.378;6.736;2022-09-20T02:00:18;7.57;;;2.73;;
59998;SDS011;45859;51.378;6.736;2022-09-20T02:23:21;8.23;;;2.23;;
59998;SDS011;45859;51.378;6.736;2022-09-20T02:39:52;8.53;;;2.50;;
59998;SDS011;45859;51.378;6.736;2022-09-20T02:46:20;15.07;;;5.43;;
59998;SDS011;45859;51.378;6.736;2022-09-20T02:48:35;11.40;;;5.00;;
59998;SDS011;45859;51.378;6.736;2022-09-20T02:51:15;6.93;;;2.07;;
59998;SDS011;45859;51.378;6.736;2022-09-20T02:56:50;7.53;;;4.17;;
59998;SDS011;45859;51.378;6.736;2022-09-20T02:59:28;4.40;;;1.47;;
59998;SDS011;45859;51.378;6.736;2022-09-20T03:02:09;11.90;;;4.00;;
59998;SDS011;45859;51.378;6.736;2022-09-20T03:45:25;4.30;;;2.43;;
59998;SDS011;45859;51.378;6.736;2022-09-20T04:04:14;9.80;;;4.70;;
59998;SDS011;45859;51.378;6.736;2022-09-20T04:07:40;12.55;;;5.43;;
59998;SDS011;45859;51.378;6.736;2022-09-20T04:18:31;5.50;;;2.50;;
59998;SDS011;45859;51.378;6.736;2022-09-20T04:21:13;13.97;;;5.57;;
59998;SDS011;45859;51.378;6.736;2022-09-20T04:26:26;14.40;;;2.40;;
59998;SDS011;45859;51.378;6.736;2022-09-20T04:31:34;13.50;;;5.70;;
59998;SDS011;45859;51.378;6.736;2022-09-20T04:34:18;12.53;;;5.50;;
59998;SDS011;45859;51.378;6.736;2022-09-20T04:37:26;7.23;;;2.40;;
59998;SDS011;45859;51.378;6.736;2022-09-20T05:01:42;6.17;;;2.93;;
59998;SDS011;45859;51.378;6.736;2022-09-20T05:12:34;13.45;;;6.50;;
59998;SDS011;45859;51.378;6.736;2022-09-20T05:20:52;14.20;;;6.87;;
59998;SDS011;45859;51.378;6.736;2022-09-20T05:26:31;17.90;;;7.27;;
59998;SDS011;45859;51.378;6.736;2022-09-20T05:29:17;13.93;;;3.70;;
59998;SDS011;45859;51.378;6.736;2022-09-20T05:34:33;7.83;;;3.10;;
59998;SDS011;45859;51.378;6.736;2022-09-20T05:39:59;20.10;;;7.70;;
59998;SDS011;45859;51.378;6.736;2022-09-20T05:42:41;14.60;;;7.30;;
59998;SDS011;45859;51.378;6.736;2022-09-20T06:01:22;13.43;;;7.23;;
59998;SDS011;45859;51.378;6.736;2022-09-20T06:03:52;13.10;;;7.40;;
59998;SDS011;45859;51.378;6.736;2022-09-20T06:14:46;16.10;;;7.80;;
59998;SDS011;45859;51.378;6.736;2022-09-20T06:17:27;16.80;;;8.37;;
59998;SDS011;45859;51.378;6.736;2022-09-20T06:23:13;7.97;;;4.05;;
59998;SDS011;45859;51.378;6.736;2022-09-20T06:28:15;11.57;;;6.27;;
59998;SDS011;45859;51.378;6.736;2022-09-20T06:30:43;12.80;;;7.67;;
59998;SDS011;45859;51.378;6.736;2022-09-20T06:38:37;13.73;;;7.07;;
59998;SDS011;45859;51.378;6.736;2022-09-20T06:41:29;15.87;;;8.00;;
59998;SDS011;45859;51.378;6.736;2022-09-20T06:43:57;12.67;;;6.97;;
59998;SDS011;45859;51.378;6.736;2022-09-20T06:46:25;13.57;;;7.20;;
59998;SDS011;45859;51.378;6.736;2022-09-20T06:48:55;9.73;;;6.88;;
59998;SDS011;45859;51.378;6.736;2022-09-20T06:51:21;13.57;;;6.93;;
59998;SDS011;45859;51.378;6.736;2022-09-20T06:53:48;10.40;;;6.20;;
59998;SDS011;45859;51.378;6.736;2022-09-20T06:56:18;13.40;;;6.90;;
59998;SDS011;45859;51.378;6.736;2022-09-20T06:58:46;12.10;;;6.67;;
59998;SDS011;45859;51.378;6.736;2022-09-20T07:01:12;11.50;;;7.23;;
59998;SDS011;45859;51.378;6.736;2022-09-20T07:03:39;10.87;;;6.60;;
59998;SDS011;45859;51.378;6.736;2022-09-20T07:06:06;10.17;;;5.10;;
59998;SDS011;45859;51.378;6.736;2022-09-20T07:08:32;8.80;;;4.30;;
59998;SDS011;45859;51.378;6.736;2022-09-20T07:11:05;8.10;;;4.28;;
59998;SDS011;45859;51.378;6.736;2022-09-20T07:13:33;8.93;;;4.68;;
59998;SDS011;45859;51.378;6.736;2022-09-20T07:16:03;8.18;;;4.15;;
59998;SDS011;45859;51.378;6.736;2022-09-20T07:18:31;8.48;;;4.25;;
59998;SDS011;45859;51.378;6.736;2022-09-20T07:20:58;10.50;;;4.40;;
59998;SDS011;45859;51.378;6.736;2022-09-20T07:23:25;8.95;;;3.58;;
59998;SDS011;45859;51.378;6.736;2022-09-20T07:25:51;11.70;;;3.83;;
59998;SDS011;45859;51.378;6.736;2022-09-20T07:28:17;8.25;;;3.38;;
59998;SDS011;45859;51.378;6.736;2022-09-20T07:30:46;7.82;;;3.67;;
59998;SDS011;45859;51.378;6.736;2022-09-20T07:33:12;6.10;;;3.05;;
59998;SDS011;45859;51.378;6.736;2022-09-20T07:35:45;5.93;;;2.95;;
59998;SDS011;45859;51.378;6.736;2022-09-20T07:38:12;6.30;;;2.92;;
59998;SDS011;45859;51.378;6.736;2022-09-20T07:40:38;7.47;;;2.58;;
59998;SDS011;45859;51.378;6.736;2022-09-20T07:43:03;6.03;;;2.67;;
59998;SDS011;45859;51.378;6.736;2022-09-20T07:45:29;7.72;;;2.60;;
59998;SDS011;45859;51.378;6.736;2022-09-20T07:47:58;12.27;;;2.60;;
59998;SDS011;45859;51.378;6.736;2022-09-20T07:50:23;7.05;;;2.50;;
59998;SDS011;45859;51.378;6.736;2022-09-20T07:52:49;9.43;;;2.65;;
59998;SDS011;45859;51.378;6.736;2022-09-20T07:55:15;4.82;;;2.40;;
59998;SDS011;45859;51.378;6.736;2022-09-20T07:57:41;6.13;;;2.83;;
59998;SDS011;45859;51.378;6.736;2022-09-20T08:00:07;6.20;;;2.58;;
59998;SDS011;45859;51.378;6.736;2022-09-20T08:02:34;10.50;;;3.00;;
59998;SDS011;45859;51.378;6.736;2022-09-20T08:05:00;9.25;;;2.80;;
59998;SDS011;45859;51.378;6.736;2022-09-20T08:07:25;6.78;;;2.85;;
59998;SDS011;45859;51.378;6.736;2022-09-20T08:09:52;9.73;;;3.10;;
59998;SDS011;45859;51.378;6.736;2022-09-20T08:12:18;11.32;;;3.22;;
59998;SDS011;45859;51.378;6.736;2022-09-20T08:14:44;14.85;;;3.53;;
59998;SDS011;45859;51.378;6.736;2022-09-20T08:17:10;7.50;;;2.53;;
59998;SDS011;45859;51.378;6.736;2022-09-20T08:19:36;4.82;;;2.60;;
59998;SDS011;45859;51.378;6.736;2022-09-20T08:22:04;8.07;;;3.28;;
59998;SDS011;45859;51.378;6.736;2022-09-20T08:24:30;5.25;;;2.55;;
59998;SDS011;45859;51.378;6.736;2022-09-20T08:26:56;7.75;;;3.15;;
59998;SDS011;45859;51.378;6.736;2022-09-20T08:29:22;7.60;;;2.83;;
59998;SDS011;45859;51.378;6.736;2022-09-20T08:31:49;7.85;;;2.50;;
59998;SDS011;45859;51.378;6.736;2022-09-20T08:34:16;7.93;;;3.00;;
59998;SDS011;45859;51.378;6.736;2022-09-20T08:36:43;6.63;;;2.85;;
59998;SDS011;45859;51.378;6.736;2022-09-20T08:39:16;4.22;;;2.00;;
59998;SDS011;45859;51.378;6.736;2022-09-20T08:41:43;4.88;;;1.85;;
59998;SDS011;45859;51.378;6.736;2022-09-20T08:46:41;7.97;;;2.00;;
59998;SDS011;45859;51.378;6.736;2022-09-20T08:49:13;8.23;;;2.42;;
59998;SDS011;45859;51.378;6.736;2022-09-20T08:51:50;8.73;;;2.20;;
59998;SDS011;45859;51.378;6.736;2022-09-20T08:54:16;3.65;;;1.48;;
59998;SDS011;45859;51.378;6.736;2022-09-20T08:56:42;8.60;;;1.90;;
59998;SDS011;45859;51.378;6.736;2022-09-20T08:59:16;5.18;;;2.13;;
59998;SDS011;45859;51.378;6.736;2022-09-20T09:01:44;4.95;;;1.58;;
59998;SDS011;45859;51.378;6.736;2022-09-20T09:04:21;5.28;;;1.60;;
59998;SDS011;45859;51.378;6.736;2022-09-20T09:06:49;5.60;;;2.13;;
59998;SDS011;45859;51.378;6.736;2022-09-20T09:11:47;4.88;;;1.50;;
59998;SDS011;45859;51.378;6.736;2022-09-20T09:14:24;6.93;;;1.85;;
59998;SDS011;45859;51.378;6.736;2022-09-20T09:17:11;3.47;;;1.73;;
59998;SDS011;45859;51.378;6.736;2022-09-20T09:19:45;5.18;;;1.48;;
59998;SDS011;45859;51.378;6.736;2022-09-20T09:22:30;6.53;;;1.35;;
59998;SDS011;45859;51.378;6.736;2022-09-20T09:27:50;4.80;;;1.30;;
59998;SDS011;45859;51.378;6.736;2022-09-20T09:31:10;4.75;;;1.33;;
59998;SDS011;45859;51.378;6.736;2022-09-20T09:35:38;6.38;;;1.10;;
59998;SDS011;45859;51.378;6.736;2022-09-20T09:38:08;4.95;;;1.60;;
59998;SDS011;45859;51.378;6.736;2022-09-20T09:43:21;6.95;;;1.70;;
59998;SDS011;45859;51.378;6.736;2022-09-20T09:45:51;9.32;;;3.45;;
59998;SDS011;45859;51.378;6.736;2022-09-20T09:50:46;9.27;;;1.60;;
59998;SDS011;45859;51.378;6.736;2022-09-20T09:53:13;11.65;;;1.75;;
59998;SDS011;45859;51.378;6.736;2022-09-20T09:59:14;6.20;;;1.63;;
59998;SDS011;45859;51.378;6.736;2022-09-20T10:06:53;7.10;;;2.03;;
59998;SDS011;45859;51.378;6.736;2022-09-20T10:12:42;7.40;;;1.90;;
59998;SDS011;45859;51.378;6.736;2022-09-20T10:18:30;5.43;;;1.77;;
59998;SDS011;45859;51.378;6.736;2022-09-20T10:21:10;6.23;;;2.03;;
59998;SDS011;45859;51.378;6.736;2022-09-20T10:28:58;5.90;;;2.70;;
59998;SDS011;45859;51.378;6.736;2022-09-20T10:31:56;4.77;;;2.33;;
59998;SDS011;45859;51.378;6.736;2022-09-20T10:34:52;5.73;;;2.20;;
59998;SDS011;45859;51.378;6.736;2022-09-20T10:37:32;7.30;;;2.28;;
59998;SDS011;45859;51.378;6.736;2022-09-20T10:42:41;5.95;;;1.50;;
59998;SDS011;45859;51.378;6.736;2022-09-20T10:45:35;7.40;;;1.70;;
59998;SDS011;45859;51.378;6.736;2022-09-20T10:53:42;3.47;;;1.02;;
59998;SDS011;45859;51.378;6.736;2022-09-20T11:05:05;3.88;;;0.70;;
59998;SDS011;45859;51.378;6.736;2022-09-20T11:16:25;3.63;;;0.90;;
59998;SDS011;45859;51.378;6.736;2022-09-20T11:19:02;6.22;;;1.33;;
59998;SDS011;45859;51.378;6.736;2022-09-20T11:22:26;3.58;;;0.75;;
59998;SDS011;45859;51.378;6.736;2022-09-20T11:24:47;5.68;;;0.90;;
59998;SDS011;45859;51.378;6.736;2022-09-20T11:30:15;2.60;;;0.85;;
59998;SDS011;45859;51.378;6.736;2022-09-20T11:32:50;2.92;;;0.80;;
59998;SDS011;45859;51.378;6.736;2022-09-20T11:35:32;4.20;;;0.90;;
59998;SDS011;45859;51.378;6.736;2022-09-20T11:38:11;4.57;;;1.25;;
59998;SDS011;45859;51.378;6.736;2022-09-20T11:43:47;2.95;;;0.90;;
59998;SDS011;45859;51.378;6.736;2022-09-20T11:46:19;3.45;;;0.70;;
59998;SDS011;45859;51.378;6.736;2022-09-20T11:48:53;3.22;;;0.70;;
59998;SDS011;45859;51.378;6.736;2022-09-20T11:57:05;3.15;;;0.90;;
59998;SDS011;45859;51.378;6.736;2022-09-20T12:02:04;2.17;;;0.70;;
59998;SDS011;45859;51.378;6.736;2022-09-20T12:04:46;2.53;;;0.88;;
59998;SDS011;45859;51.378;6.736;2022-09-20T12:13:33;4.22;;;0.60;;
59998;SDS011;45859;51.378;6.736;2022-09-20T12:15:56;1.95;;;0.43;;
59998;SDS011;45859;51.378;6.736;2022-09-20T12:18:30;2.53;;;0.70;;
59998;SDS011;45859;51.378;6.736;2022-09-20T12:33:57;2.03;;;0.47;;
59998;SDS011;45859;51.378;6.736;2022-09-20T12:44:25;3.05;;;0.45;;
59998;SDS011;45859;51.378;6.736;2022-09-20T12:47:02;2.85;;;0.77;;
59998;SDS011;45859;51.378;6.736;2022-09-20T12:49:50;1.38;;;0.70;;
59998;SDS011;45859;51.378;6.736;2022-09-20T13:08:38;1.88;;;0.50;;
59998;SDS011;45859;51.378;6.736;2022-09-20T13:16:21;1.75;;;0.50;;
59998;SDS011;45859;51.378;6.736;2022-09-20T13:19:10;2.53;;;0.65;;
59998;SDS011;45859;51.378;6.736;2022-09-20T13:21:46;10.20;;;9.25;;
59998;SDS011;45859;51.378;6.736;2022-09-20T13:24:15;2.13;;;1.10;;
59998;SDS011;45859;51.378;6.736;2022-09-20T13:26:45;3.80;;;0.73;;
59998;SDS011;45859;51.378;6.736;2022-09-20T13:29:24;2.90;;;0.75;;
59998;SDS011;45859;51.378;6.736;2022-09-20T13:31:57;4.47;;;0.60;;
59998;SDS011;45859;51.378;6.736;2022-09-20T13:34:44;2.88;;;0.60;;
59998;SDS011;45859;51.378;6.736;2022-09-20T13:37:15;1.88;;;0.50;;
59998;SDS011;45859;51.378;6.736;2022-09-20T13:39:47;3.83;;;0.70;;
59998;SDS011;45859;51.378;6.736;2022-09-20T13:42:18;2.30;;;0.43;;
59998;SDS011;45859;51.378;6.736;2022-09-20T13:44:44;2.35;;;0.50;;
59998;SDS011;45859;51.378;6.736;2022-09-20T13:47:21;3.50;;;0.93;;
59998;SDS011;45859;51.378;6.736;2022-09-20T13:49:52;1.48;;;0.80;;
59998;SDS011;45859;51.378;6.736;2022-09-20T13:52:42;3.42;;;1.05;;
59998;SDS011;45859;51.378;6.736;2022-09-20T13:58:07;5.15;;;0.77;;
59998;SDS011;45859;51.378;6.736;2022-09-20T14:00:48;3.35;;;0.57;;
59998;SDS011;45859;51.378;6.736;2022-09-20T14:03:19;7.22;;;1.23;;
59998;SDS011;45859;51.378;6.736;2022-09-20T14:05:52;2.85;;;0.75;;
59998;SDS011;45859;51.378;6.736;2022-09-20T14:08:21;1.92;;;0.45;;
59998;SDS011;45859;51.378;6.736;2022-09-20T14:11:03;2.03;;;0.65;;
59998;SDS011;45859;51.378;6.736;2022-09-20T14:13:30;1.77;;;0.60;;
59998;SDS011;45859;51.378;6.736;2022-09-20T14:16:01;3.10;;;0.80;;
59998;SDS011;45859;51.378;6.736;2022-09-20T14:18:28;2.53;;;0.47;;
59998;SDS011;45859;51.378;6.736;2022-09-20T14:20:54;5.82;;;0.75;;
59998;SDS011;45859;51.378;6.736;2022-09-20T14:23:21;2.58;;;0.57;;
59998;SDS011;45859;51.378;6.736;2022-09-20T14:28:50;2.25;;;0.52;;
59998;SDS011;45859;51.378;6.736;2022-09-20T14:31:28;1.45;;;0.52;;
59998;SDS011;45859;51.378;6.736;2022-09-20T14:33:58;2.92;;;0.90;;
59998;SDS011;45859;51.378;6.736;2022-09-20T14:36:27;2.42;;;0.70;;
59998;SDS011;45859;51.378;6.736;2022-09-20T14:38:55;2.53;;;0.50;;
59998;SDS011;45859;51.378;6.736;2022-09-20T14:41:27;7.30;;;0.85;;
59998;SDS011;45859;51.378;6.736;2022-09-20T14:43:58;1.83;;;0.57;;
59998;SDS011;45859;51.378;6.736;2022-09-20T14:46:36;3.92;;;0.68;;
59998;SDS011;45859;51.378;6.736;2022-09-20T14:51:53;2.65;;;0.65;;
59998;SDS011;45859;51.378;6.736;2022-09-20T14:54:57;5.55;;;0.73;;
59998;SDS011;45859;51.378;6.736;2022-09-20T14:57:38;3.38;;;0.90;;
59998;SDS011;45859;51.378;6.736;2022-09-20T15:00:13;2.10;;;0.63;;
59998;SDS011;45859;51.378;6.736;2022-09-20T15:02:41;4.63;;;1.23;;
59998;SDS011;45859;51.378;6.736;2022-09-20T15:05:15;2.58;;;0.60;;
59998;SDS011;45859;51.378;6.736;2022-09-20T15:07:48;1.83;;;0.80;;
59998;SDS011;45859;51.378;6.736;2022-09-20T15:10:14;4.45;;;1.00;;
59998;SDS011;45859;51.378;6.736;2022-09-20T15:12:40;3.33;;;0.70;;
59998;SDS011;45859;51.378;6.736;2022-09-20T15:15:10;3.87;;;0.80;;
59998;SDS011;45859;51.378;6.736;2022-09-20T15:17:40;3.60;;;1.03;;
59998;SDS011;45859;51.378;6.736;2022-09-20T15:20:11;2.67;;;0.67;;
59998;SDS011;45859;51.378;6.736;2022-09-20T15:22:39;2.53;;;0.90;;
59998;SDS011;45859;51.378;6.736;2022-09-20T15:25:05;3.13;;;0.67;;
59998;SDS011;45859;51.378;6.736;2022-09-20T15:27:35;2.58;;;0.60;;
59998;SDS011;45859;51.378;6.736;2022-09-20T15:30:01;3.00;;;0.87;;
59998;SDS011;45859;51.378;6.736;2022-09-20T15:32:27;3.40;;;0.83;;
59998;SDS011;45859;51.378;6.736;2022-09-20T15:34:53;2.43;;;0.60;;
59998;SDS011;45859;51.378;6.736;2022-09-20T15:37:18;2.97;;;0.50;;
59998;SDS011;45859;51.378;6.736;2022-09-20T15:39:44;4.15;;;0.80;;
59998;SDS011;45859;51.378;6.736;2022-09-20T15:42:09;3.93;;;0.83;;
59998;SDS011;45859;51.378;6.736;2022-09-20T15:44:35;1.70;;;0.70;;
59998;SDS011;45859;51.378;6.736;2022-09-20T15:47:01;4.17;;;0.70;;
59998;SDS011;45859;51.378;6.736;2022-09-20T15:49:28;6.35;;;1.20;;
59998;SDS011;45859;51.378;6.736;2022-09-20T15:51:55;4.15;;;0.90;;
59998;SDS011;45859;51.378;6.736;2022-09-20T15:54:21;3.88;;;0.70;;
59998;SDS011;45859;51.378;6.736;2022-09-20T15:56:46;3.33;;;0.80;;
59998;SDS011;45859;51.378;6.736;2022-09-20T15:59:12;2.70;;;0.70;;
59998;SDS011;45859;51.378;6.736;2022-09-20T16:01:40;3.37;;;0.90;;
59998;SDS011;45859;51.378;6.736;2022-09-20T16:04:08;3.53;;;0.77;;
59998;SDS011;45859;51.378;6.736;2022-09-20T16:06:36;2.20;;;0.60;;
59998;SDS011;45859;51.378;6.736;2022-09-20T16:09:03;4.38;;;0.95;;
59998;SDS011;45859;51.378;6.736;2022-09-20T16:11:29;3.67;;;0.90;;
59998;SDS011;45859;51.378;6.736;2022-09-20T16:13:55;3.03;;;0.60;;
59998;SDS011;45859;51.378;6.736;2022-09-20T16:16:22;2.30;;;0.70;;
59998;SDS011;45859;51.378;6.736;2022-09-20T16:18:52;2.67;;;1.00;;
59998;SDS011;45859;51.378;6.736;2022-09-20T16:21:37;2.33;;;0.67;;
59998;SDS011;45859;51.378;6.736;2022-09-20T16:24:04;3.37;;;0.80;;
59998;SDS011;45859;51.378;6.736;2022-09-20T16:26:32;3.90;;;1.07;;
59998;SDS011;45859;51.378;6.736;2022-09-20T16:28:58;3.45;;;0.98;;
59998;SDS011;45859;51.378;6.736;2022-09-20T16:33:54;4.77;;;0.80;;
59998;SDS011;45859;51.378;6.736;2022-09-20T16:36:19;4.10;;;0.70;;
59998;SDS011;45859;51.378;6.736;2022-09-20T16:38:48;3.97;;;0.90;;
59998;SDS011;45859;51.378;6.736;2022-09-20T16:41:14;1.70;;;0.90;;
59998;SDS011;45859;51.378;6.736;2022-09-20T16:43:39;3.70;;;0.90;;
59998;SDS011;45859;51.378;6.736;2022-09-20T16:46:05;1.57;;;0.73;;
59998;SDS011;45859;51.378;6.736;2022-09-20T16:48:31;3.20;;;0.87;;
59998;SDS011;45859;51.378;6.736;2022-09-20T16:50:57;3.20;;;1.17;;
59998;SDS011;45859;51.378;6.736;2022-09-20T16:53:25;3.03;;;1.13;;
59998;SDS011;45859;51.378;6.736;2022-09-20T16:55:52;3.37;;;0.90;;
59998;SDS011;45859;51.378;6.736;2022-09-20T16:58:27;3.43;;;0.80;;
59998;SDS011;45859;51.378;6.736;2022-09-20T17:01:01;2.47;;;0.60;;
59998;SDS011;45859;51.378;6.736;2022-09-20T17:03:31;2.97;;;0.90;;
59998;SDS011;45859;51.378;6.736;2022-09-20T17:06:01;2.73;;;1.10;;
59998;SDS011;45859;51.378;6.736;2022-09-20T17:08:28;8.50;;;1.48;;
59998;SDS011;45859;51.378;6.736;2022-09-20T17:10:57;3.00;;;0.87;;
59998;SDS011;45859;51.378;6.736;2022-09-20T17:13:24;3.87;;;0.93;;
59998;SDS011;45859;51.378;6.736;2022-09-20T17:16:00;3.40;;;0.93;;
59998;SDS011;45859;51.378;6.736;2022-09-20T17:18:27;5.87;;;1.13;;
59998;SDS011;45859;51.378;6.736;2022-09-20T17:20:53;4.10;;;0.93;;
59998;SDS011;45859;51.378;6.736;2022-09-20T17:23:18;4.30;;;1.20;;
59998;SDS011;45859;51.378;6.736;2022-09-20T17:25:44;4.43;;;1.27;;
59998;SDS011;45859;51.378;6.736;2022-09-20T17:28:12;7.50;;;1.30;;
59998;SDS011;45859;51.378;6.736;2022-09-20T17:30:38;4.73;;;1.10;;
59998;SDS011;45859;51.378;6.736;2022-09-20T17:33:05;5.10;;;1.43;;
59998;SDS011;45859;51.378;6.736;2022-09-20T17:35:31;3.63;;;1.20;;
59998;SDS011;45859;51.378;6.736;2022-09-20T17:37:56;3.67;;;1.20;;
59998;SDS011;45859;51.378;6.736;2022-09-20T17:40:22;3.67;;;0.90;;
59998;SDS011;45859;51.378;6.736;2022-09-20T17:42:47;4.80;;;1.63;;
59998;SDS011;45859;51.378;6.736;2022-09-20T17:45:13;4.70;;;1.33;;
59998;SDS011;45859;51.378;6.736;2022-09-20T17:47:40;3.67;;;1.10;;
59998;SDS011;45859;51.378;6.736;2022-09-20T17:50:06;4.00;;;1.10;;
59998;SDS011;45859;51.378;6.736;2022-09-20T17:52:32;3.27;;;1.20;;
59998;SDS011;45859;51.378;6.736;2022-09-20T17:54:58;5.87;;;1.53;;
59998;SDS011;45859;51.378;6.736;2022-09-20T17:57:24;8.20;;;1.40;;
59998;SDS011;45859;51.378;6.736;2022-09-20T17:59:49;10.63;;;3.33;;
59998;SDS011;45859;51.378;6.736;2022-09-20T18:02:15;6.10;;;1.70;;
59998;SDS011;45859;51.378;6.736;2022-09-20T18:04:41;5.60;;;1.87;;
59998;SDS011;45859;51.378;6.736;2022-09-20T18:07:06;6.87;;;1.83;;
59998;SDS011;45859;51.378;6.736;2022-09-20T18:09:32;5.17;;;1.73;;
59998;SDS011;45859;51.378;6.736;2022-09-20T18:11:57;5.20;;;1.60;;
59998;SDS011;45859;51.378;6.736;2022-09-20T18:14:24;5.53;;;2.13;;
59998;SDS011;45859;51.378;6.736;2022-09-20T18:16:55;3.93;;;2.00;;
59998;SDS011;45859;51.378;6.736;2022-09-20T18:19:24;6.73;;;1.90;;
59998;SDS011;45859;51.378;6.736;2022-09-20T18:21:56;4.27;;;1.77;;
59998;SDS011;45859;51.378;6.736;2022-09-20T18:24:22;5.70;;;1.80;;
59998;SDS011;45859;51.378;6.736;2022-09-20T18:26:48;7.77;;;1.83;;
59998;SDS011;45859;51.378;6.736;2022-09-20T18:29:16;5.47;;;2.00;;
59998;SDS011;45859;51.378;6.736;2022-09-20T18:31:50;6.47;;;1.87;;
59998;SDS011;45859;51.378;6.736;2022-09-20T18:34:19;3.83;;;1.93;;
59998;SDS011;45859;51.378;6.736;2022-09-20T18:36:53;7.43;;;2.40;;
59998;SDS011;45859;51.378;6.736;2022-09-20T18:39:24;7.07;;;2.70;;
59998;SDS011;45859;51.378;6.736;2022-09-20T18:41:51;11.53;;;3.10;;
59998;SDS011;45859;51.378;6.736;2022-09-20T18:44:17;7.07;;;3.50;;
59998;SDS011;45859;51.378;6.736;2022-09-20T18:46:44;5.13;;;2.90;;
59998;SDS011;45859;51.378;6.736;2022-09-20T18:49:11;5.33;;;3.00;;
59998;SDS011;45859;51.378;6.736;2022-09-20T18:51:39;6.13;;;3.30;;
59998;SDS011;45859;51.378;6.736;2022-09-20T18:54:06;6.90;;;3.67;;
59998;SDS011;45859;51.378;6.736;2022-09-20T18:56:36;4.95;;;1.75;;
59998;SDS011;45859;51.378;6.736;2022-09-20T18:59:12;7.93;;;2.42;;
59998;SDS011;45859;51.378;6.736;2022-09-20T19:01:47;4.73;;;1.50;;
59998;SDS011;45859;51.378;6.736;2022-09-20T19:07:14;9.37;;;3.50;;
59998;SDS011;45859;51.378;6.736;2022-09-20T19:12:38;5.03;;;2.13;;
59998;SDS011;45859;51.378;6.736;2022-09-20T19:23:14;8.00;;;4.27;;
59998;SDS011;45859;51.378;6.736;2022-09-20T19:26:07;5.93;;;3.47;;
59998;SDS011;45859;51.378;6.736;2022-09-20T19:28:34;8.83;;;3.63;;
59998;SDS011;45859;51.378;6.736;2022-09-20T19:31:01;6.40;;;3.53;;
59998;SDS011;45859;51.378;6.736;2022-09-20T19:33:27;5.13;;;2.07;;
59998;SDS011;45859;51.378;6.736;2022-09-20T19:35:53;7.07;;;2.07;;
59998;SDS011;45859;51.378;6.736;2022-09-20T19:44:13;8.93;;;4.10;;
59998;SDS011;45859;51.378;6.736;2022-09-20T19:46:55;6.57;;;3.90;;
59998;SDS011;45859;51.378;6.736;2022-09-20T19:49:55;8.13;;;4.03;;
59998;SDS011;45859;51.378;6.736;2022-09-20T19:52:53;8.07;;;4.10;;
59998;SDS011;45859;51.378;6.736;2022-09-20T19:55:22;6.83;;;2.63;;
59998;SDS011;45859;51.378;6.736;2022-09-20T19:57:48;3.17;;;2.10;;
59998;SDS011;45859;51.378;6.736;2022-09-20T20:00:18;4.70;;;2.13;;
59998;SDS011;45859;51.378;6.736;2022-09-20T20:02:45;6.57;;;2.75;;
59998;SDS011;45859;51.378;6.736;2022-09-20T20:05:12;9.43;;;4.43;;
59998;SDS011;45859;51.378;6.736;2022-09-20T20:07:49;4.73;;;2.30;;
59998;SDS011;45859;51.378;6.736;2022-09-20T20:13:44;2.80;;;1.40;;
59998;SDS011;45859;51.378;6.736;2022-09-20T20:19:17;5.00;;;1.53;;
59998;SDS011;45859;51.378;6.736;2022-09-20T20:21:54;6.03;;;3.83;;
59998;SDS011;45859;51.378;6.736;2022-09-20T20:25:03;6.40;;;2.10;;
59998;SDS011;45859;51.378;6.736;2022-09-20T20:27:22;3.57;;;1.83;;
59998;SDS011;45859;51.378;6.736;2022-09-20T20:29:52;8.50;;;2.47;;
59998;SDS011;45859;51.378;6.736;2022-09-20T20:32:21;5.47;;;4.10;;
59998;SDS011;45859;51.378;6.736;2022-09-20T20:34:47;6.43;;;4.10;;
59998;SDS011;45859;51.378;6.736;2022-09-20T20:37:13;7.97;;;4.23;;
59998;SDS011;45859;51.378;6.736;2022-09-20T20:39:39;7.77;;;4.93;;
59998;SDS011;45859;51.378;6.736;2022-09-20T20:42:05;9.73;;;5.07;;
59998;SDS011;45859;51.378;6.736;2022-09-20T20:44:32;8.57;;;5.00;;
59998;SDS011;45859;51.378;6.736;2022-09-20T20:46:59;9.67;;;5.80;;
59998;SDS011;45859;51.378;6.736;2022-09-20T20:49:28;3.53;;;2.50;;
59998;SDS011;45859;51.378;6.736;2022-09-20T20:51:54;7.07;;;2.93;;
59998;SDS011;45859;51.378;6.736;2022-09-20T20:54:23;8.07;;;6.23;;
59998;SDS011;45859;51.378;6.736;2022-09-20T20:56:49;12.03;;;6.20;;
59998;SDS011;45859;51.378;6.736;2022-09-20T20:59:15;10.27;;;6.70;;
59998;SDS011;45859;51.378;6.736;2022-09-20T21:01:41;7.07;;;2.87;;
59998;SDS011;45859;51.378;6.736;2022-09-20T21:04:09;5.37;;;3.00;;
59998;SDS011;45859;51.378;6.736;2022-09-20T21:06:36;5.13;;;2.90;;
59998;SDS011;45859;51.378;6.736;2022-09-20T21:09:04;8.13;;;5.67;;
59998;SDS011;45859;51.378;6.736;2022-09-20T21:11:31;9.97;;;5.87;;
59998;SDS011;45859;51.378;6.736;2022-09-20T21:14:03;6.63;;;2.93;;
59998;SDS011;45859;51.378;6.736;2022-09-20T21:16:34;9.93;;;2.70;;
59998;SDS011;45859;51.378;6.736;2022-09-20T21:19:01;9.60;;;5.33;;
59998;SDS011;45859;51.378;6.736;2022-09-20T21:21:31;7.03;;;4.90;;
59998;SDS011;45859;51.378;6.736;2022-09-20T21:24:03;8.10;;;5.50;;
59998;SDS011;45859;51.378;6.736;2022-09-20T21:26:31;11.53;;;5.63;;
59998;SDS011;45859;51.378;6.736;2022-09-20T21:29:02;9.97;;;5.40;;